createdAt,value
2022-11-17T00:01:38.836Z,99416.91
2022-11-17T00:04:07.034Z,99408.59
2022-11-17T00:06:35.965Z,99422.59
2022-11-17T00:09:04.745Z,99426.19
2022-11-17T00:11:52.954Z,99419.50
2022-11-17T00:14:33.006Z,99425.78
2022-11-17T00:17:02.225Z,99432.91
2022-11-17T00:19:48.623Z,99430.09
2022-11-17T00:22:17.416Z,99422.91
2022-11-17T00:24:45.426Z,99425.34
2022-11-17T00:27:13.755Z,99412.03
2022-11-17T00:29:41.666Z,99406.75
2022-11-17T00:32:33.459Z,99390.75
2022-11-17T00:35:02.196Z,99388.44
2022-11-17T00:37:35.156Z,99400.53
2022-11-17T00:40:04.940Z,99402.94
2022-11-17T00:42:33.190Z,99408.97
2022-11-17T00:45:01.544Z,99409.06
2022-11-17T00:47:30.365Z,99418.19
2022-11-17T00:49:58.274Z,99416.22
2022-11-17T00:52:26.606Z,99412.06
2022-11-17T00:54:54.505Z,99413.31
2022-11-17T00:57:22.846Z,99410.47
2022-11-17T00:59:50.815Z,99413.25
2022-11-17T01:02:20.145Z,99412.03
2022-11-17T01:04:48.187Z,99414.44
2022-11-17T01:07:16.527Z,99401.06
2022-11-17T01:09:44.506Z,99393.31
2022-11-17T01:12:12.767Z,99397.03
2022-11-17T01:14:40.779Z,99402.13
2022-11-17T01:17:09.866Z,99406.53
2022-11-17T01:19:37.796Z,99414.78
2022-11-17T01:22:07.015Z,99422.34
2022-11-17T01:24:35.005Z,99416.44
2022-11-17T01:27:03.505Z,99415.16
2022-11-17T01:29:31.506Z,99413.94
2022-11-17T01:32:00.975Z,99413.38
2022-11-17T01:34:28.927Z,99412.69
2022-11-17T01:37:32.348Z,99414.19
2022-11-17T01:40:00.755Z,99418.75
2022-11-17T01:42:29.717Z,99412.69
2022-11-17T01:45:01.907Z,99403.66
2022-11-17T01:47:47.986Z,99409.16
2022-11-17T01:50:34.524Z,99415.88
2022-11-17T01:53:08.899Z,99416.03
2022-11-17T01:55:58.518Z,99425.69
2022-11-17T01:58:38.723Z,99412.69
2022-11-17T02:01:07.086Z,99410.91
2022-11-17T02:03:37.346Z,99406.41
2022-11-17T02:06:09.216Z,99422.69
2022-11-17T02:08:41.420Z,99410.97
2022-11-17T02:11:14.654Z,99412.53
2022-11-17T02:13:42.954Z,99417.78
2022-11-17T02:16:16.155Z,99417.09
2022-11-17T02:18:46.253Z,99435.00
2022-11-17T02:21:44.814Z,99425.00
2022-11-17T02:24:27.505Z,99429.03
2022-11-17T02:27:32.934Z,99425.13
2022-11-17T02:30:07.783Z,99427.50
2022-11-17T02:32:46.164Z,99432.28
2022-11-17T02:35:28.084Z,99431.41
2022-11-17T02:38:02.464Z,99422.50
2022-11-17T02:40:48.815Z,99419.50
2022-11-17T02:43:39.103Z,99421.50
2022-11-17T02:46:23.703Z,99426.06
2022-11-17T02:49:06.024Z,99420.72
2022-11-17T02:51:37.393Z,99410.41
2022-11-17T02:54:06.233Z,99407.97
2022-11-17T02:56:34.473Z,99399.94
2022-11-17T02:59:05.383Z,99402.09
2022-11-17T03:01:36.241Z,99394.06
2022-11-17T03:04:26.163Z,99398.19
2022-11-17T03:07:06.683Z,99392.66
2022-11-17T03:09:45.554Z,99380.84
2022-11-17T03:12:23.873Z,99379.53
2022-11-17T03:14:57.372Z,99376.09
2022-11-17T03:17:48.304Z,99377.09
2022-11-17T03:20:33.843Z,99373.66
2022-11-17T03:23:17.944Z,99375.84
2022-11-17T03:25:51.982Z,99380.63
2022-11-17T03:28:24.782Z,99375.75
2022-11-17T03:30:54.635Z,99377.78
2022-11-17T03:33:26.232Z,99388.00
2022-11-17T03:36:13.912Z,99400.91
2022-11-17T03:38:53.963Z,99400.03
2022-11-17T03:41:23.954Z,99396.13
2022-11-17T03:43:54.152Z,99400.34
2022-11-17T03:46:24.585Z,99400.03
2022-11-17T03:49:04.541Z,99387.59
2022-11-17T03:51:33.764Z,99390.06
2022-11-17T03:54:03.174Z,99395.94
2022-11-17T03:56:55.881Z,99388.34
2022-11-17T03:59:44.017Z,99381.06
2022-11-17T04:02:18.702Z,99372.84
2022-11-17T04:05:05.685Z,99371.22
2022-11-17T04:07:40.805Z,99366.88
2022-11-17T04:10:19.292Z,99368.97
2022-11-17T04:13:07.532Z,99372.75
2022-11-17T04:15:54.311Z,99383.97
2022-11-17T04:18:23.493Z,99387.72
2022-11-17T04:20:54.536Z,99396.50
2022-11-17T04:23:24.312Z,99390.84
2022-11-17T04:26:15.514Z,99409.41
2022-11-17T04:28:47.567Z,99413.25
2022-11-17T04:31:24.646Z,99407.34
2022-11-17T04:33:55.391Z,99406.97
2022-11-17T04:36:33.551Z,99417.06
2022-11-17T04:39:01.671Z,99412.28
2022-11-17T04:41:48.982Z,99427.41
2022-11-17T04:44:18.223Z,99431.09
2022-11-17T04:46:47.260Z,99429.41
2022-11-17T04:49:17.286Z,99434.00
2022-11-17T04:51:46.668Z,99423.88
2022-11-17T04:54:17.689Z,99423.50
2022-11-17T04:56:48.518Z,99413.66
2022-11-17T04:59:16.619Z,99416.91
2022-11-17T05:01:45.770Z,99425.78
2022-11-17T05:04:37.479Z,99426.28
2022-11-17T05:07:08.448Z,99419.41
2022-11-17T05:09:36.748Z,99391.91
2022-11-17T05:12:23.698Z,99396.34
2022-11-17T05:14:52.681Z,99387.66
2022-11-17T05:17:22.453Z,99393.22
2022-11-17T05:19:50.469Z,99407.16
2022-11-17T05:22:41.410Z,99419.22
2022-11-17T05:25:10.668Z,99409.31
2022-11-17T05:27:38.909Z,99408.59
2022-11-17T05:30:08.556Z,99422.78
2022-11-17T05:32:37.790Z,99418.00
2022-11-17T05:35:06.188Z,99400.59
2022-11-17T05:37:34.466Z,99397.78
2022-11-17T05:40:02.480Z,99397.22
2022-11-17T05:42:30.815Z,99396.88
2022-11-17T05:44:58.779Z,99400.78
2022-11-17T05:47:28.266Z,99392.38
2022-11-17T05:49:56.067Z,99396.94
2022-11-17T05:52:24.256Z,99395.38
2022-11-17T05:54:52.997Z,99393.13
2022-11-17T05:57:27.938Z,99390.81
2022-11-17T06:00:01.173Z,99385.94
2022-11-17T06:02:38.906Z,99401.72
2022-11-17T06:05:08.676Z,99403.50
2022-11-17T06:07:38.990Z,99407.25
2022-11-17T06:10:07.360Z,99403.09
2022-11-17T06:12:35.676Z,99408.44
2022-11-17T06:15:03.907Z,99411.09
2022-11-17T06:17:37.249Z,99403.44
2022-11-17T06:20:35.796Z,99394.66
2022-11-17T06:23:07.716Z,99390.22
2022-11-17T06:25:37.310Z,99400.31
2022-11-17T06:28:11.011Z,99397.09
2022-11-17T06:30:40.167Z,99398.88
2022-11-17T06:33:12.280Z,99397.53
2022-11-17T06:35:42.916Z,99407.06
2022-11-17T06:38:11.099Z,99398.72
2022-11-17T06:40:39.439Z,99400.72
2022-11-17T06:43:09.847Z,99399.66
2022-11-17T06:45:41.034Z,99391.97
2022-11-17T06:48:11.702Z,99384.78
2022-11-17T06:50:40.157Z,99393.28
2022-11-17T06:53:10.907Z,99388.50
2022-11-17T06:55:39.119Z,99393.16
2022-11-17T06:58:11.748Z,99385.75
2022-11-17T07:00:39.967Z,99379.16
2022-11-17T07:03:11.503Z,99361.31
2022-11-17T07:05:40.376Z,99359.22
2022-11-17T07:08:09.848Z,99359.63
2022-11-17T07:10:39.205Z,99373.66
2022-11-17T07:13:07.246Z,99369.97
2022-11-17T07:15:35.618Z,99368.84
2022-11-17T07:18:03.567Z,99377.75
2022-11-17T07:20:31.860Z,99376.63
2022-11-17T07:23:00.527Z,99377.09
2022-11-17T07:25:28.794Z,99392.50
2022-11-17T07:28:01.085Z,99389.19
2022-11-17T07:30:29.765Z,99389.28
2022-11-17T07:33:03.847Z,99394.75
2022-11-17T07:35:32.397Z,99412.28
2022-11-17T07:38:01.857Z,99407.41
2022-11-17T07:40:30.279Z,99412.94
2022-11-17T07:42:58.183Z,99419.16
2022-11-17T07:45:31.927Z,99422.94
2022-11-17T07:48:02.605Z,99427.81
2022-11-17T07:50:31.545Z,99415.50
2022-11-17T07:52:59.641Z,99425.13
2022-11-17T07:55:27.955Z,99420.25
2022-11-17T07:58:01.145Z,99423.97
2022-11-17T08:00:31.390Z,99424.06
2022-11-17T08:03:05.214Z,99417.16
2022-11-17T08:05:41.542Z,99422.06
2022-11-17T08:08:14.836Z,99426.03
2022-11-17T08:10:44.177Z,99432.94
2022-11-17T08:13:14.318Z,99433.84
2022-11-17T08:15:42.667Z,99445.81
2022-11-17T08:18:10.592Z,99438.66
2022-11-17T08:20:39.192Z,99437.66
2022-11-17T08:23:07.261Z,99440.16
2022-11-17T08:25:35.514Z,99444.91
2022-11-17T08:28:03.624Z,99441.72
2022-11-17T08:30:35.551Z,99444.41
2022-11-17T08:33:03.578Z,99442.44
2022-11-17T08:35:37.273Z,99440.81
2022-11-17T08:38:06.002Z,99440.53
2022-11-17T08:40:34.407Z,99450.63
2022-11-17T08:43:02.344Z,99444.50
2022-11-17T08:45:30.811Z,99446.06
2022-11-17T08:47:59.183Z,99448.13
2022-11-17T08:50:28.129Z,99444.31
2022-11-17T08:52:56.204Z,99443.22
2022-11-17T08:55:26.650Z,99445.66
2022-11-17T08:57:54.593Z,99453.78
2022-11-17T09:00:22.986Z,99459.00
2022-11-17T09:02:50.936Z,99455.25
2022-11-17T09:05:19.284Z,99450.44
2022-11-17T09:07:47.428Z,99454.03
2022-11-17T09:10:16.623Z,99459.06
2022-11-17T09:12:44.552Z,99460.91
2022-11-17T09:15:12.763Z,99456.16
2022-11-17T09:17:43.895Z,99453.03
2022-11-17T09:20:12.714Z,99452.16
2022-11-17T09:22:40.883Z,99454.31
2022-11-17T09:25:13.315Z,99449.31
2022-11-17T09:27:41.675Z,99457.25
2022-11-17T09:30:10.962Z,99458.34
2022-11-17T09:32:38.822Z,99458.13
2022-11-17T09:35:09.604Z,99452.88
2022-11-17T09:37:38.073Z,99470.63
2022-11-17T09:40:07.664Z,99473.38
2022-11-17T09:42:40.301Z,99474.31
2022-11-17T09:45:21.224Z,99479.41
2022-11-17T09:48:33.680Z,99473.53
2022-11-17T09:50:56.523Z,99483.03
2022-11-17T09:53:31.564Z,99486.84
2022-11-17T09:56:07.632Z,99489.66
2022-11-17T09:58:50.124Z,99485.50
2022-11-17T10:01:20.600Z,99481.78
2022-11-17T10:03:51.030Z,99486.34
2022-11-17T10:06:32.125Z,99479.69
2022-11-17T10:09:16.403Z,99476.44
2022-11-17T10:11:47.983Z,99479.72
2022-11-17T10:14:19.413Z,99480.56
2022-11-17T10:16:54.975Z,99477.38
2022-11-17T10:19:26.076Z,99467.72
2022-11-17T10:22:03.249Z,99460.81
2022-11-17T10:24:49.023Z,99459.78
2022-11-17T10:27:26.825Z,99454.28
2022-11-17T10:30:00.526Z,99457.28
2022-11-17T10:32:31.578Z,99446.00
2022-11-17T10:35:19.865Z,99449.31
2022-11-17T10:38:14.606Z,99455.94
2022-11-17T10:40:42.932Z,99444.44
2022-11-17T10:43:14.216Z,99435.38
2022-11-17T10:45:57.313Z,99437.25
2022-11-17T10:48:31.326Z,99428.28
2022-11-17T10:51:00.624Z,99429.91
2022-11-17T10:53:32.220Z,99418.63
2022-11-17T10:56:05.014Z,99422.06
2022-11-17T10:58:59.331Z,99415.59
2022-11-17T11:01:39.185Z,99402.28
2022-11-17T11:04:34.745Z,99393.56
2022-11-17T11:07:06.999Z,99391.16
2022-11-17T11:09:42.304Z,99403.91
2022-11-17T11:12:16.461Z,99408.47
2022-11-17T11:15:09.499Z,99409.72
2022-11-17T11:17:37.626Z,99409.91
2022-11-17T11:20:18.494Z,99416.69
2022-11-17T11:22:59.441Z,99404.75
2022-11-17T11:25:41.946Z,99404.91
2022-11-17T11:28:28.494Z,99408.06
2022-11-17T11:31:25.675Z,99401.78
2022-11-17T11:34:10.643Z,99395.47
2022-11-17T11:37:01.437Z,99401.59
2022-11-17T11:39:59.304Z,99394.66
2022-11-17T11:43:20.675Z,99392.88
2022-11-17T11:46:17.894Z,99404.75
2022-11-17T11:48:48.264Z,99391.72
2022-11-17T11:51:25.363Z,99386.13
2022-11-17T11:54:04.417Z,99374.53
2022-11-17T11:56:36.766Z,99380.31
2022-11-17T11:59:48.508Z,99375.91
2022-11-17T12:02:38.485Z,99376.91
2022-11-17T12:05:44.115Z,99384.31
2022-11-17T12:08:41.228Z,99382.00
2022-11-17T12:11:33.354Z,99378.84
2022-11-17T12:14:05.383Z,99373.94
2022-11-17T12:16:37.936Z,99377.44
2022-11-17T12:19:46.073Z,99381.31
2022-11-17T12:22:22.715Z,99382.97
2022-11-17T12:24:58.504Z,99378.72
2022-11-17T12:27:35.328Z,99383.13
2022-11-17T12:30:25.934Z,99380.34
2022-11-17T12:32:55.534Z,99381.53
2022-11-17T12:35:28.803Z,99388.34
2022-11-17T12:38:15.443Z,99382.38
2022-11-17T12:40:47.914Z,99374.38
2022-11-17T12:43:15.865Z,99381.06
2022-11-17T12:46:00.267Z,99383.91
2022-11-17T12:48:35.740Z,99391.53
2022-11-17T12:51:26.885Z,99377.06
2022-11-17T12:54:38.333Z,99384.13
2022-11-17T12:57:25.336Z,99383.75
2022-11-17T13:00:10.944Z,99382.66
2022-11-17T13:03:28.503Z,99367.41
2022-11-17T13:06:34.810Z,99365.38
2022-11-17T13:09:12.296Z,99386.94
2022-11-17T13:11:40.174Z,99389.22
2022-11-17T13:14:10.475Z,99389.69
2022-11-17T13:16:46.604Z,99384.47
2022-11-17T13:19:31.455Z,99381.91
2022-11-17T13:22:02.594Z,99380.03
2022-11-17T13:24:33.829Z,99365.78
2022-11-17T13:27:07.703Z,99379.38
2022-11-17T13:29:36.073Z,99377.03
2022-11-17T13:32:23.829Z,99365.28
2022-11-17T13:34:57.964Z,99369.31
2022-11-17T13:37:28.553Z,99373.91
2022-11-17T13:40:15.486Z,99379.88
2022-11-17T13:42:44.233Z,99377.06
2022-11-17T13:45:15.847Z,99368.22
2022-11-17T13:47:49.683Z,99369.13
2022-11-17T13:50:34.585Z,99365.00
2022-11-17T13:53:05.615Z,99355.94
2022-11-17T13:55:34.964Z,99358.31
2022-11-17T13:58:07.074Z,99360.97
2022-11-17T14:00:35.484Z,99363.59
2022-11-17T14:03:07.222Z,99367.56
2022-11-17T14:05:35.544Z,99356.16
2022-11-17T14:08:23.794Z,99335.88
2022-11-17T14:11:10.456Z,99335.97
2022-11-17T14:14:12.302Z,99337.25
2022-11-17T14:16:42.264Z,99340.34
2022-11-17T14:19:16.265Z,99344.97
2022-11-17T14:22:13.253Z,99348.91
2022-11-17T14:24:45.945Z,99358.53
2022-11-17T14:27:27.205Z,99366.97
2022-11-17T14:29:55.424Z,99366.28
2022-11-17T14:32:23.732Z,99372.41
2022-11-17T14:34:51.734Z,99362.97
2022-11-17T14:37:20.158Z,99362.06
2022-11-17T14:39:48.233Z,99366.50
2022-11-17T14:42:16.593Z,99356.94
2022-11-17T14:44:44.603Z,99355.81
2022-11-17T14:47:12.956Z,99365.41
2022-11-17T14:49:40.883Z,99367.56
2022-11-17T14:52:09.703Z,99378.13
2022-11-17T14:54:37.573Z,99378.66
2022-11-17T14:57:05.846Z,99383.03
2022-11-17T14:59:35.413Z,99369.47
2022-11-17T15:02:04.454Z,99380.56
2022-11-17T15:04:50.060Z,99392.41
2022-11-17T15:07:19.702Z,99391.06
2022-11-17T15:09:47.685Z,99385.16
2022-11-17T15:12:17.417Z,99376.50
2022-11-17T15:14:48.163Z,99362.94
2022-11-17T15:17:17.061Z,99367.56
2022-11-17T15:19:45.872Z,99361.03
2022-11-17T15:22:14.704Z,99357.75
2022-11-17T15:24:42.683Z,99347.00
2022-11-17T15:27:12.573Z,99354.31
2022-11-17T15:29:41.196Z,99369.09
2022-11-17T15:32:10.873Z,99385.88
2022-11-17T15:34:38.819Z,99389.78
2022-11-17T15:37:07.655Z,99385.50
2022-11-17T15:39:36.359Z,99388.81
2022-11-17T15:42:04.658Z,99395.75
2022-11-17T15:44:32.552Z,99397.34
2022-11-17T15:47:00.844Z,99393.94
2022-11-17T15:49:28.774Z,99386.47
2022-11-17T15:51:57.074Z,99387.28
2022-11-17T15:54:25.119Z,99385.34
2022-11-17T15:56:55.737Z,99390.69
2022-11-17T15:59:23.763Z,99398.34
2022-11-17T16:01:51.943Z,99396.38
2022-11-17T16:04:19.932Z,99395.06
2022-11-17T16:06:48.236Z,99394.47
2022-11-17T16:09:17.306Z,99398.88
2022-11-17T16:11:46.078Z,99401.13
2022-11-17T16:14:15.337Z,99400.16
2022-11-17T16:16:46.206Z,99407.19
2022-11-17T16:19:14.728Z,99408.47
2022-11-17T16:21:44.735Z,99399.50
2022-11-17T16:24:12.848Z,99400.16
2022-11-17T16:26:41.251Z,99400.97
2022-11-17T16:29:09.490Z,99400.13
2022-11-17T16:31:39.167Z,99418.31
2022-11-17T16:34:13.314Z,99421.19
2022-11-17T16:36:43.854Z,99424.19
2022-11-17T16:39:17.311Z,99418.78
2022-11-17T16:41:46.526Z,99423.84
2022-11-17T16:44:17.285Z,99422.69
2022-11-17T16:46:48.172Z,99411.03
2022-11-17T16:49:18.165Z,99411.66
2022-11-17T16:51:51.838Z,99416.91
2022-11-17T16:54:21.854Z,99408.22
2022-11-17T16:56:51.278Z,99419.63
2022-11-17T16:59:19.830Z,99409.88
2022-11-17T17:01:49.472Z,99407.06
2022-11-17T17:04:17.637Z,99409.78
2022-11-17T17:06:46.973Z,99413.56
2022-11-17T17:09:15.907Z,99418.59
2022-11-17T17:11:44.442Z,99411.25
2022-11-17T17:14:14.596Z,99415.00
2022-11-17T17:16:43.198Z,99418.69
2022-11-17T17:19:13.622Z,99411.97
2022-11-17T17:21:43.706Z,99400.16
2022-11-17T17:24:12.406Z,99402.00
2022-11-17T17:26:41.326Z,99402.03
2022-11-17T17:29:12.025Z,99403.34
2022-11-17T17:31:43.008Z,99402.19
2022-11-17T17:34:13.038Z,99414.09
2022-11-17T17:36:41.413Z,99427.88
2022-11-17T17:39:16.224Z,99424.28
2022-11-17T17:41:46.046Z,99412.53
2022-11-17T17:44:19.237Z,99412.47
2022-11-17T17:46:48.633Z,99406.09
2022-11-17T17:49:19.112Z,99410.59
2022-11-17T17:51:48.308Z,99399.50
2022-11-17T17:54:19.016Z,99384.81
2022-11-17T17:56:48.418Z,99388.84
2022-11-17T17:59:17.021Z,99394.25
2022-11-17T18:01:47.815Z,99402.94
2022-11-17T18:04:16.846Z,99405.41
2022-11-17T18:06:49.177Z,99409.34
2022-11-17T18:09:20.731Z,99407.44
2022-11-17T18:11:51.209Z,99416.41
2022-11-17T18:14:25.149Z,99408.38
2022-11-17T18:16:54.422Z,99401.91
2022-11-17T18:19:26.932Z,99387.47
2022-11-17T18:21:59.244Z,99380.91
2022-11-17T18:24:27.183Z,99390.56
2022-11-17T18:26:55.403Z,99384.63
2022-11-17T18:29:23.526Z,99378.47
2022-11-17T18:31:51.996Z,99380.09
2022-11-17T18:34:22.273Z,99383.00
2022-11-17T18:36:52.636Z,99394.91
2022-11-17T18:39:21.542Z,99393.13
2022-11-17T18:41:50.021Z,99388.41
2022-11-17T18:44:21.712Z,99376.88
2022-11-17T18:46:50.163Z,99367.41
2022-11-17T18:49:18.593Z,99364.59
2022-11-17T18:51:47.648Z,99363.75
2022-11-17T18:54:15.935Z,99369.09
2022-11-17T18:56:44.851Z,99359.53
2022-11-17T18:59:13.245Z,99366.72
2022-11-17T19:01:43.306Z,99357.09
2022-11-17T19:04:15.291Z,99362.38
2022-11-17T19:06:43.748Z,99367.38
2022-11-17T19:09:11.889Z,99365.28
2022-11-17T19:11:40.300Z,99365.69
2022-11-17T19:14:08.356Z,99370.25
2022-11-17T19:16:44.608Z,99373.00
2022-11-17T19:19:14.468Z,99367.84
2022-11-17T19:21:43.409Z,99376.84
2022-11-17T19:24:11.740Z,99377.41
2022-11-17T19:26:43.003Z,99374.59
2022-11-17T19:29:16.633Z,99362.59
2022-11-17T19:31:47.061Z,99369.28
2022-11-17T19:34:16.267Z,99359.06
2022-11-17T19:36:45.809Z,99369.47
2022-11-17T19:39:14.876Z,99355.50
2022-11-17T19:41:45.463Z,99351.88
2022-11-17T19:44:13.620Z,99341.31
2022-11-17T19:46:43.513Z,99352.03
2022-11-17T19:49:11.995Z,99348.00
2022-11-17T19:51:41.530Z,99339.44
2022-11-17T19:54:11.977Z,99342.88
2022-11-17T19:56:40.425Z,99337.53
2022-11-17T19:59:13.995Z,99340.72
2022-11-17T20:01:45.432Z,99341.22
2022-11-17T20:04:13.758Z,99337.56
2022-11-17T20:06:42.661Z,99340.03
2022-11-17T20:09:13.914Z,99340.25
2022-11-17T20:11:43.163Z,99337.53
2022-11-17T20:14:11.389Z,99326.16
2022-11-17T20:16:39.966Z,99321.59
2022-11-17T20:19:09.251Z,99331.41
2022-11-17T20:21:37.865Z,99340.78
2022-11-17T20:24:06.269Z,99331.41
2022-11-17T20:26:36.179Z,99327.72
2022-11-17T20:29:04.484Z,99328.28
2022-11-17T20:31:35.547Z,99321.38
2022-11-17T20:34:05.882Z,99311.44
2022-11-17T20:36:35.888Z,99309.75
2022-11-17T20:39:06.779Z,99308.81
2022-11-17T20:41:35.347Z,99313.94
2022-11-17T20:44:04.538Z,99310.94
2022-11-17T20:46:34.718Z,99306.31
2022-11-17T20:49:02.898Z,99299.91
2022-11-17T20:51:32.465Z,99307.28
2022-11-17T20:54:00.680Z,99297.59
2022-11-17T20:56:29.177Z,99302.97
2022-11-17T20:58:57.338Z,99315.03
2022-11-17T21:01:26.241Z,99316.78
2022-11-17T21:03:54.451Z,99313.66
2022-11-17T21:06:25.689Z,99313.72
2022-11-17T21:08:53.921Z,99316.78
2022-11-17T21:11:44.009Z,99317.06
2022-11-17T21:14:13.497Z,99316.84
2022-11-17T21:16:46.942Z,99314.72
2022-11-17T21:19:16.258Z,99324.72
2022-11-17T21:21:45.369Z,99324.44
2022-11-17T21:24:13.748Z,99320.41
2022-11-17T21:26:42.258Z,99325.00
2022-11-17T21:29:10.367Z,99318.22
2022-11-17T21:31:38.987Z,99315.66
2022-11-17T21:34:07.752Z,99305.28
2022-11-17T21:36:36.480Z,99297.00
2022-11-17T21:39:06.387Z,99302.28
2022-11-17T21:41:38.899Z,99315.63
2022-11-17T21:44:07.156Z,99310.22
2022-11-17T21:46:36.966Z,99297.19
2022-11-17T21:49:05.280Z,99295.78
2022-11-17T21:51:38.745Z,99301.94
2022-11-17T21:54:09.238Z,99303.06
2022-11-17T21:56:38.052Z,99305.69
2022-11-17T21:59:10.609Z,99297.22
2022-11-17T22:01:40.752Z,99309.47
2022-11-17T22:04:11.141Z,99320.88
2022-11-17T22:06:40.807Z,99316.94
2022-11-17T22:09:10.220Z,99316.13
2022-11-17T22:11:39.252Z,99312.75
2022-11-17T22:14:09.239Z,99310.34
2022-11-17T22:16:40.910Z,99305.66
2022-11-17T22:19:09.675Z,99301.13
2022-11-17T22:21:39.837Z,99306.38
2022-11-17T22:24:10.797Z,99306.25
2022-11-17T22:26:44.068Z,99293.09
2022-11-17T22:29:20.149Z,99271.69
2022-11-17T22:31:49.826Z,99271.00
2022-11-17T22:34:18.835Z,99281.03
2022-11-17T22:36:47.204Z,99295.25
2022-11-17T22:39:17.062Z,99303.34
2022-11-17T22:41:45.602Z,99304.03
2022-11-17T22:44:15.683Z,99290.03
2022-11-17T22:46:44.234Z,99287.88
2022-11-17T22:49:13.696Z,99271.00
2022-11-17T22:52:01.446Z,99261.00
2022-11-17T22:54:30.623Z,99250.69
2022-11-17T22:57:00.084Z,99245.50
2022-11-17T22:59:30.060Z,99235.13
2022-11-17T23:01:58.281Z,99206.72
2022-11-17T23:04:26.322Z,99228.00
2022-11-17T23:06:55.193Z,99224.66
2022-11-17T23:09:23.343Z,99236.91
2022-11-17T23:11:51.674Z,99236.38
2022-11-17T23:14:20.242Z,99235.03
2022-11-17T23:16:48.633Z,99253.94
2022-11-17T23:19:16.842Z,99245.03
2022-11-17T23:21:46.723Z,99240.06
2022-11-17T23:24:14.994Z,99237.72
2022-11-17T23:26:43.263Z,99240.03
2022-11-17T23:29:11.338Z,99244.56
2022-11-17T23:31:39.903Z,99243.44
2022-11-17T23:34:11.134Z,99231.06
2022-11-17T23:36:39.626Z,99224.28
2022-11-17T23:39:07.694Z,99222.78
2022-11-17T23:41:35.958Z,99227.78
2022-11-17T23:44:04.049Z,99222.53
2022-11-17T23:46:32.347Z,99222.41
2022-11-17T23:49:00.327Z,99238.56
2022-11-17T23:51:30.961Z,99238.81
2022-11-17T23:54:01.114Z,99237.09
2022-11-17T23:56:33.809Z,99236.47
2022-11-17T23:59:01.832Z,99230.53
